sensor_id;sensor_type;location;lat;lon;timestamp;P1;durP1;ratioP1;P2;durP2;ratioP2
27543;SDS011;17996;51.056;3.656;2023-12-07T00:01:14;37.00;;;17.55;;
27543;SDS011;17996;51.056;3.656;2023-12-07T00:03:39;33.50;;;16.90;;
27543;SDS011;17996;51.056;3.656;2023-12-07T00:06:05;32.75;;;17.60;;
27543;SDS011;17996;51.056;3.656;2023-12-07T00:08:31;30.52;;;16.30;;
27543;SDS011;17996;51.056;3.656;2023-12-07T00:10:57;37.33;;;16.95;;
27543;SDS011;17996;51.056;3.656;2023-12-07T00:13:22;34.75;;;15.88;;
27543;SDS011;17996;51.056;3.656;2023-12-07T00:15:48;29.08;;;16.25;;
27543;SDS011;17996;51.056;3.656;2023-12-07T00:18:14;29.00;;;16.00;;
27543;SDS011;17996;51.056;3.656;2023-12-07T00:20:39;26.00;;;15.10;;
27543;SDS011;17996;51.056;3.656;2023-12-07T00:23:05;32.65;;;15.43;;
27543;SDS011;17996;51.056;3.656;2023-12-07T00:25:31;29.75;;;15.93;;
27543;SDS011;17996;51.056;3.656;2023-12-07T00:27:57;28.38;;;14.88;;
27543;SDS011;17996;51.056;3.656;2023-12-07T00:30:22;33.13;;;14.88;;
27543;SDS011;17996;51.056;3.656;2023-12-07T00:32:48;40.58;;;15.85;;
27543;SDS011;17996;51.056;3.656;2023-12-07T00:35:14;31.10;;;14.75;;
27543;SDS011;17996;51.056;3.656;2023-12-07T00:37:41;34.78;;;17.05;;
27543;SDS011;17996;51.056;3.656;2023-12-07T00:40:07;35.00;;;17.10;;
27543;SDS011;17996;51.056;3.656;2023-12-07T00:42:33;27.00;;;15.25;;
27543;SDS011;17996;51.056;3.656;2023-12-07T00:45:00;40.30;;;16.60;;
27543;SDS011;17996;51.056;3.656;2023-12-07T00:47:26;34.53;;;17.92;;
27543;SDS011;17996;51.056;3.656;2023-12-07T00:49:51;38.50;;;16.75;;
27543;SDS011;17996;51.056;3.656;2023-12-07T00:52:17;34.38;;;17.38;;
27543;SDS011;17996;51.056;3.656;2023-12-07T00:54:43;33.72;;;17.05;;
27543;SDS011;17996;51.056;3.656;2023-12-07T00:57:09;50.83;;;17.77;;
27543;SDS011;17996;51.056;3.656;2023-12-07T00:59:35;34.95;;;17.08;;
27543;SDS011;17996;51.056;3.656;2023-12-07T01:02:04;37.63;;;18.02;;
27543;SDS011;17996;51.056;3.656;2023-12-07T01:04:33;40.97;;;17.45;;
27543;SDS011;17996;51.056;3.656;2023-12-07T01:06:59;42.35;;;17.02;;
27543;SDS011;17996;51.056;3.656;2023-12-07T01:09:25;37.83;;;18.95;;
27543;SDS011;17996;51.056;3.656;2023-12-07T01:11:51;31.98;;;17.10;;
27543;SDS011;17996;51.056;3.656;2023-12-07T01:14:17;35.45;;;16.58;;
27543;SDS011;17996;51.056;3.656;2023-12-07T01:16:43;38.45;;;18.38;;
27543;SDS011;17996;51.056;3.656;2023-12-07T01:19:10;33.60;;;16.02;;
27543;SDS011;17996;51.056;3.656;2023-12-07T01:21:39;34.90;;;17.05;;
27543;SDS011;17996;51.056;3.656;2023-12-07T01:24:06;31.83;;;16.83;;
27543;SDS011;17996;51.056;3.656;2023-12-07T01:26:32;36.15;;;17.02;;
27543;SDS011;17996;51.056;3.656;2023-12-07T01:28:58;36.35;;;18.33;;
27543;SDS011;17996;51.056;3.656;2023-12-07T01:31:23;37.35;;;14.55;;
27543;SDS011;17996;51.056;3.656;2023-12-07T01:33:49;36.17;;;16.42;;
27543;SDS011;17996;51.056;3.656;2023-12-07T01:36:15;33.60;;;15.50;;
27543;SDS011;17996;51.056;3.656;2023-12-07T01:38:41;30.23;;;14.85;;
27543;SDS011;17996;51.056;3.656;2023-12-07T01:41:08;28.05;;;15.45;;
27543;SDS011;17996;51.056;3.656;2023-12-07T01:43:34;34.70;;;17.05;;
27543;SDS011;17996;51.056;3.656;2023-12-07T01:46:00;32.38;;;15.73;;
27543;SDS011;17996;51.056;3.656;2023-12-07T01:48:26;44.13;;;15.88;;
27543;SDS011;17996;51.056;3.656;2023-12-07T01:50:54;34.80;;;17.33;;
27543;SDS011;17996;51.056;3.656;2023-12-07T01:53:22;47.40;;;16.38;;
27543;SDS011;17996;51.056;3.656;2023-12-07T01:55:50;38.40;;;17.00;;
27543;SDS011;17996;51.056;3.656;2023-12-07T01:58:17;46.38;;;20.60;;
27543;SDS011;17996;51.056;3.656;2023-12-07T02:00:44;42.28;;;18.38;;
27543;SDS011;17996;51.056;3.656;2023-12-07T02:03:11;40.55;;;18.42;;
27543;SDS011;17996;51.056;3.656;2023-12-07T02:05:41;45.28;;;19.15;;
27543;SDS011;17996;51.056;3.656;2023-12-07T02:08:08;42.55;;;20.30;;
27543;SDS011;17996;51.056;3.656;2023-12-07T02:10:34;39.22;;;18.10;;
27543;SDS011;17996;51.056;3.656;2023-12-07T02:13:00;45.65;;;19.95;;
27543;SDS011;17996;51.056;3.656;2023-12-07T02:15:26;44.75;;;19.65;;
27543;SDS011;17996;51.056;3.656;2023-12-07T02:20:37;45.92;;;20.02;;
27543;SDS011;17996;51.056;3.656;2023-12-07T02:23:13;43.75;;;19.02;;
27543;SDS011;17996;51.056;3.656;2023-12-07T02:25:44;47.92;;;21.30;;
27543;SDS011;17996;51.056;3.656;2023-12-07T02:28:16;52.85;;;21.55;;
27543;SDS011;17996;51.056;3.656;2023-12-07T02:30:42;47.13;;;20.92;;
27543;SDS011;17996;51.056;3.656;2023-12-07T02:33:08;48.67;;;21.80;;
27543;SDS011;17996;51.056;3.656;2023-12-07T02:35:35;51.60;;;21.27;;
27543;SDS011;17996;51.056;3.656;2023-12-07T02:38:02;50.13;;;20.13;;
27543;SDS011;17996;51.056;3.656;2023-12-07T02:40:28;42.67;;;18.13;;
27543;SDS011;17996;51.056;3.656;2023-12-07T02:42:55;45.55;;;21.05;;
27543;SDS011;17996;51.056;3.656;2023-12-07T02:45:23;45.33;;;20.98;;
27543;SDS011;17996;51.056;3.656;2023-12-07T02:47:48;39.70;;;20.40;;
27543;SDS011;17996;51.056;3.656;2023-12-07T02:50:14;46.33;;;21.13;;
27543;SDS011;17996;51.056;3.656;2023-12-07T02:52:40;46.40;;;19.80;;
27543;SDS011;17996;51.056;3.656;2023-12-07T02:55:06;42.00;;;20.40;;
27543;SDS011;17996;51.056;3.656;2023-12-07T02:57:32;40.75;;;19.17;;
27543;SDS011;17996;51.056;3.656;2023-12-07T03:00:04;43.90;;;19.80;;
27543;SDS011;17996;51.056;3.656;2023-12-07T03:02:35;41.40;;;19.90;;
27543;SDS011;17996;51.056;3.656;2023-12-07T03:05:02;48.00;;;20.90;;
27543;SDS011;17996;51.056;3.656;2023-12-07T03:07:28;47.95;;;20.83;;
27543;SDS011;17996;51.056;3.656;2023-12-07T03:09:54;47.67;;;20.98;;
27543;SDS011;17996;51.056;3.656;2023-12-07T03:12:19;50.22;;;21.70;;
27543;SDS011;17996;51.056;3.656;2023-12-07T03:14:45;51.47;;;20.23;;
27543;SDS011;17996;51.056;3.656;2023-12-07T03:17:11;56.78;;;22.65;;
27543;SDS011;17996;51.056;3.656;2023-12-07T03:19:38;44.67;;;19.77;;
27543;SDS011;17996;51.056;3.656;2023-12-07T03:22:04;44.92;;;19.88;;
27543;SDS011;17996;51.056;3.656;2023-12-07T03:24:32;50.08;;;20.83;;
27543;SDS011;17996;51.056;3.656;2023-12-07T03:26:59;44.75;;;20.83;;
27543;SDS011;17996;51.056;3.656;2023-12-07T03:29:25;46.38;;;21.40;;
27543;SDS011;17996;51.056;3.656;2023-12-07T03:31:51;47.67;;;20.83;;
27543;SDS011;17996;51.056;3.656;2023-12-07T03:34:17;53.35;;;20.55;;
27543;SDS011;17996;51.056;3.656;2023-12-07T03:36:46;51.55;;;23.15;;
27543;SDS011;17996;51.056;3.656;2023-12-07T03:39:15;46.97;;;21.27;;
27543;SDS011;17996;51.056;3.656;2023-12-07T03:41:43;52.70;;;22.63;;
27543;SDS011;17996;51.056;3.656;2023-12-07T03:44:09;43.97;;;20.70;;
27543;SDS011;17996;51.056;3.656;2023-12-07T03:46:35;53.15;;;22.60;;
27543;SDS011;17996;51.056;3.656;2023-12-07T03:49:01;49.25;;;21.48;;
27543;SDS011;17996;51.056;3.656;2023-12-07T03:51:27;48.05;;;22.75;;
27543;SDS011;17996;51.056;3.656;2023-12-07T03:53:56;48.58;;;21.88;;
27543;SDS011;17996;51.056;3.656;2023-12-07T03:56:24;53.70;;;22.67;;
27543;SDS011;17996;51.056;3.656;2023-12-07T03:58:50;53.38;;;21.85;;
27543;SDS011;17996;51.056;3.656;2023-12-07T04:01:16;64.13;;;23.63;;
27543;SDS011;17996;51.056;3.656;2023-12-07T04:03:42;50.65;;;21.48;;
27543;SDS011;17996;51.056;3.656;2023-12-07T04:06:08;55.53;;;24.38;;
27543;SDS011;17996;51.056;3.656;2023-12-07T04:08:34;55.60;;;24.15;;
27543;SDS011;17996;51.056;3.656;2023-12-07T04:11:00;57.70;;;23.27;;
27543;SDS011;17996;51.056;3.656;2023-12-07T04:13:25;51.42;;;21.40;;
27543;SDS011;17996;51.056;3.656;2023-12-07T04:15:51;47.33;;;21.52;;
27543;SDS011;17996;51.056;3.656;2023-12-07T04:18:17;53.92;;;22.83;;
27543;SDS011;17996;51.056;3.656;2023-12-07T04:20:43;49.63;;;21.05;;
27543;SDS011;17996;51.056;3.656;2023-12-07T04:23:09;50.65;;;23.05;;
27543;SDS011;17996;51.056;3.656;2023-12-07T04:25:34;53.10;;;24.00;;
27543;SDS011;17996;51.056;3.656;2023-12-07T04:28:00;49.42;;;20.95;;
27543;SDS011;17996;51.056;3.656;2023-12-07T04:30:26;50.95;;;21.92;;
27543;SDS011;17996;51.056;3.656;2023-12-07T04:32:51;50.22;;;21.75;;
27543;SDS011;17996;51.056;3.656;2023-12-07T04:35:18;51.47;;;21.23;;
27543;SDS011;17996;51.056;3.656;2023-12-07T04:37:43;47.28;;;22.50;;
27543;SDS011;17996;51.056;3.656;2023-12-07T04:40:09;43.83;;;20.58;;
27543;SDS011;17996;51.056;3.656;2023-12-07T04:42:35;46.63;;;20.55;;
27543;SDS011;17996;51.056;3.656;2023-12-07T04:45:01;50.05;;;22.25;;
27543;SDS011;17996;51.056;3.656;2023-12-07T04:47:27;49.15;;;21.20;;
27543;SDS011;17996;51.056;3.656;2023-12-07T04:49:53;50.30;;;21.90;;
27543;SDS011;17996;51.056;3.656;2023-12-07T04:52:19;49.92;;;20.60;;
27543;SDS011;17996;51.056;3.656;2023-12-07T04:54:45;48.22;;;20.23;;
27543;SDS011;17996;51.056;3.656;2023-12-07T04:57:10;54.30;;;21.73;;
27543;SDS011;17996;51.056;3.656;2023-12-07T04:59:36;42.70;;;20.35;;
27543;SDS011;17996;51.056;3.656;2023-12-07T05:02:02;49.50;;;20.35;;
27543;SDS011;17996;51.056;3.656;2023-12-07T05:04:28;48.30;;;21.65;;
27543;SDS011;17996;51.056;3.656;2023-12-07T05:06:53;60.40;;;25.23;;
27543;SDS011;17996;51.056;3.656;2023-12-07T05:09:19;47.35;;;21.30;;
27543;SDS011;17996;51.056;3.656;2023-12-07T05:11:46;53.05;;;21.35;;
27543;SDS011;17996;51.056;3.656;2023-12-07T05:14:12;54.55;;;23.23;;
27543;SDS011;17996;51.056;3.656;2023-12-07T05:16:38;57.40;;;22.98;;
27543;SDS011;17996;51.056;3.656;2023-12-07T05:19:04;49.75;;;21.85;;
27543;SDS011;17996;51.056;3.656;2023-12-07T05:21:29;49.47;;;22.88;;
27543;SDS011;17996;51.056;3.656;2023-12-07T05:23:55;48.58;;;23.10;;
27543;SDS011;17996;51.056;3.656;2023-12-07T05:26:21;57.22;;;25.70;;
27543;SDS011;17996;51.056;3.656;2023-12-07T05:28:47;51.30;;;23.40;;
27543;SDS011;17996;51.056;3.656;2023-12-07T05:31:19;53.25;;;26.42;;
27543;SDS011;17996;51.056;3.656;2023-12-07T05:33:45;61.70;;;28.35;;
27543;SDS011;17996;51.056;3.656;2023-12-07T05:36:11;54.88;;;26.70;;
27543;SDS011;17996;51.056;3.656;2023-12-07T05:38:37;58.65;;;27.38;;
27543;SDS011;17996;51.056;3.656;2023-12-07T05:41:03;57.80;;;28.10;;
27543;SDS011;17996;51.056;3.656;2023-12-07T05:43:29;67.60;;;29.23;;
27543;SDS011;17996;51.056;3.656;2023-12-07T05:45:56;61.17;;;29.52;;
27543;SDS011;17996;51.056;3.656;2023-12-07T05:48:21;60.95;;;30.05;;
27543;SDS011;17996;51.056;3.656;2023-12-07T05:50:47;58.20;;;28.40;;
27543;SDS011;17996;51.056;3.656;2023-12-07T05:53:14;57.13;;;27.27;;
27543;SDS011;17996;51.056;3.656;2023-12-07T05:55:40;61.83;;;28.48;;
27543;SDS011;17996;51.056;3.656;2023-12-07T05:58:06;58.60;;;26.92;;
27543;SDS011;17996;51.056;3.656;2023-12-07T06:00:31;64.10;;;30.35;;
27543;SDS011;17996;51.056;3.656;2023-12-07T06:02:57;63.28;;;29.08;;
27543;SDS011;17996;51.056;3.656;2023-12-07T06:05:24;58.60;;;28.45;;
27543;SDS011;17996;51.056;3.656;2023-12-07T06:07:50;63.00;;;28.35;;
27543;SDS011;17996;51.056;3.656;2023-12-07T06:10:15;55.30;;;26.58;;
27543;SDS011;17996;51.056;3.656;2023-12-07T06:12:41;48.03;;;25.30;;
27543;SDS011;17996;51.056;3.656;2023-12-07T06:15:07;62.28;;;28.48;;
27543;SDS011;17996;51.056;3.656;2023-12-07T06:17:34;55.90;;;27.20;;
27543;SDS011;17996;51.056;3.656;2023-12-07T06:20:00;53.05;;;28.08;;
27543;SDS011;17996;51.056;3.656;2023-12-07T06:22:28;63.78;;;28.85;;
27543;SDS011;17996;51.056;3.656;2023-12-07T06:24:54;55.40;;;27.67;;
27543;SDS011;17996;51.056;3.656;2023-12-07T06:27:20;56.53;;;28.25;;
27543;SDS011;17996;51.056;3.656;2023-12-07T06:29:46;51.33;;;27.00;;
27543;SDS011;17996;51.056;3.656;2023-12-07T06:32:11;56.95;;;26.50;;
27543;SDS011;17996;51.056;3.656;2023-12-07T06:34:40;53.95;;;28.73;;
27543;SDS011;17996;51.056;3.656;2023-12-07T06:37:06;55.40;;;28.10;;
27543;SDS011;17996;51.056;3.656;2023-12-07T06:39:32;53.65;;;24.58;;
27543;SDS011;17996;51.056;3.656;2023-12-07T06:41:57;52.13;;;25.27;;
27543;SDS011;17996;51.056;3.656;2023-12-07T06:44:24;51.72;;;24.23;;
27543;SDS011;17996;51.056;3.656;2023-12-07T06:46:50;58.67;;;23.52;;
27543;SDS011;17996;51.056;3.656;2023-12-07T06:49:16;45.15;;;23.67;;
27543;SDS011;17996;51.056;3.656;2023-12-07T06:51:42;46.88;;;23.13;;
27543;SDS011;17996;51.056;3.656;2023-12-07T06:54:07;44.28;;;22.85;;
27543;SDS011;17996;51.056;3.656;2023-12-07T06:56:33;46.00;;;22.30;;
27543;SDS011;17996;51.056;3.656;2023-12-07T06:59:00;46.35;;;22.83;;
27543;SDS011;17996;51.056;3.656;2023-12-07T07:01:25;40.22;;;19.60;;
27543;SDS011;17996;51.056;3.656;2023-12-07T07:03:51;48.53;;;21.02;;
27543;SDS011;17996;51.056;3.656;2023-12-07T07:06:17;45.53;;;22.30;;
27543;SDS011;17996;51.056;3.656;2023-12-07T07:08:43;46.42;;;21.52;;
27543;SDS011;17996;51.056;3.656;2023-12-07T07:11:11;44.03;;;21.48;;
27543;SDS011;17996;51.056;3.656;2023-12-07T07:13:39;43.75;;;21.42;;
27543;SDS011;17996;51.056;3.656;2023-12-07T07:16:05;41.45;;;20.85;;
27543;SDS011;17996;51.056;3.656;2023-12-07T07:18:30;40.47;;;20.38;;
27543;SDS011;17996;51.056;3.656;2023-12-07T07:20:56;45.50;;;21.58;;
27543;SDS011;17996;51.056;3.656;2023-12-07T07:23:22;34.03;;;20.60;;
27543;SDS011;17996;51.056;3.656;2023-12-07T07:25:48;35.72;;;20.60;;
27543;SDS011;17996;51.056;3.656;2023-12-07T07:28:14;44.13;;;22.08;;
27543;SDS011;17996;51.056;3.656;2023-12-07T07:30:39;36.58;;;19.67;;
27543;SDS011;17996;51.056;3.656;2023-12-07T07:33:05;40.53;;;19.98;;
27543;SDS011;17996;51.056;3.656;2023-12-07T07:35:31;44.25;;;21.15;;
27543;SDS011;17996;51.056;3.656;2023-12-07T07:37:57;40.25;;;18.98;;
27543;SDS011;17996;51.056;3.656;2023-12-07T07:40:22;50.83;;;20.25;;
27543;SDS011;17996;51.056;3.656;2023-12-07T07:42:49;36.55;;;17.55;;
27543;SDS011;17996;51.056;3.656;2023-12-07T07:45:15;45.85;;;21.25;;
27543;SDS011;17996;51.056;3.656;2023-12-07T07:47:41;43.28;;;21.58;;
27543;SDS011;17996;51.056;3.656;2023-12-07T07:50:07;37.90;;;20.30;;
27543;SDS011;17996;51.056;3.656;2023-12-07T07:52:34;45.90;;;23.17;;
27543;SDS011;17996;51.056;3.656;2023-12-07T07:55:01;38.33;;;19.05;;
27543;SDS011;17996;51.056;3.656;2023-12-07T07:57:28;41.42;;;20.25;;
27543;SDS011;17996;51.056;3.656;2023-12-07T07:59:54;40.22;;;19.98;;
27543;SDS011;17996;51.056;3.656;2023-12-07T08:02:20;39.00;;;19.73;;
27543;SDS011;17996;51.056;3.656;2023-12-07T08:04:47;38.05;;;18.60;;
27543;SDS011;17996;51.056;3.656;2023-12-07T08:07:12;40.65;;;18.73;;
27543;SDS011;17996;51.056;3.656;2023-12-07T08:09:38;36.88;;;19.73;;
27543;SDS011;17996;51.056;3.656;2023-12-07T08:12:04;35.67;;;18.00;;
27543;SDS011;17996;51.056;3.656;2023-12-07T08:14:31;41.85;;;19.00;;
27543;SDS011;17996;51.056;3.656;2023-12-07T08:16:57;32.85;;;17.70;;
27543;SDS011;17996;51.056;3.656;2023-12-07T08:19:23;33.25;;;17.27;;
27543;SDS011;17996;51.056;3.656;2023-12-07T08:21:50;49.78;;;20.65;;
27543;SDS011;17996;51.056;3.656;2023-12-07T08:24:16;40.53;;;17.80;;
27543;SDS011;17996;51.056;3.656;2023-12-07T08:26:41;37.17;;;17.50;;
27543;SDS011;17996;51.056;3.656;2023-12-07T08:29:08;37.33;;;19.48;;
27543;SDS011;17996;51.056;3.656;2023-12-07T08:31:33;44.97;;;19.60;;
27543;SDS011;17996;51.056;3.656;2023-12-07T08:33:59;43.75;;;18.48;;
27543;SDS011;17996;51.056;3.656;2023-12-07T08:36:26;36.65;;;18.67;;
27543;SDS011;17996;51.056;3.656;2023-12-07T08:38:51;41.75;;;18.23;;
27543;SDS011;17996;51.056;3.656;2023-12-07T08:41:17;43.88;;;19.25;;
27543;SDS011;17996;51.056;3.656;2023-12-07T08:43:43;40.53;;;19.20;;
27543;SDS011;17996;51.056;3.656;2023-12-07T08:46:09;41.40;;;19.33;;
27543;SDS011;17996;51.056;3.656;2023-12-07T08:48:38;40.97;;;19.00;;
27543;SDS011;17996;51.056;3.656;2023-12-07T08:51:04;36.17;;;18.02;;
27543;SDS011;17996;51.056;3.656;2023-12-07T08:53:30;40.92;;;19.45;;
27543;SDS011;17996;51.056;3.656;2023-12-07T08:55:56;39.88;;;17.48;;
27543;SDS011;17996;51.056;3.656;2023-12-07T08:58:22;33.58;;;17.45;;
27543;SDS011;17996;51.056;3.656;2023-12-07T09:00:48;36.97;;;18.20;;
27543;SDS011;17996;51.056;3.656;2023-12-07T09:03:14;38.88;;;17.73;;
27543;SDS011;17996;51.056;3.656;2023-12-07T09:05:39;39.05;;;19.02;;
27543;SDS011;17996;51.056;3.656;2023-12-07T09:08:05;32.80;;;17.20;;
27543;SDS011;17996;51.056;3.656;2023-12-07T09:10:31;37.28;;;19.23;;
27543;SDS011;17996;51.056;3.656;2023-12-07T09:12:57;34.88;;;17.55;;
27543;SDS011;17996;51.056;3.656;2023-12-07T09:15:23;41.17;;;19.02;;
27543;SDS011;17996;51.056;3.656;2023-12-07T09:17:48;43.38;;;18.77;;
27543;SDS011;17996;51.056;3.656;2023-12-07T09:20:14;34.22;;;16.85;;
27543;SDS011;17996;51.056;3.656;2023-12-07T09:22:42;37.50;;;17.48;;
27543;SDS011;17996;51.056;3.656;2023-12-07T09:25:09;40.83;;;18.33;;
27543;SDS011;17996;51.056;3.656;2023-12-07T09:27:35;38.33;;;18.17;;
27543;SDS011;17996;51.056;3.656;2023-12-07T09:30:06;34.67;;;17.90;;
27543;SDS011;17996;51.056;3.656;2023-12-07T09:32:36;32.13;;;16.83;;
27543;SDS011;17996;51.056;3.656;2023-12-07T09:35:04;32.13;;;18.10;;
27543;SDS011;17996;51.056;3.656;2023-12-07T09:37:33;36.33;;;18.42;;
27543;SDS011;17996;51.056;3.656;2023-12-07T09:40:00;38.17;;;17.60;;
27543;SDS011;17996;51.056;3.656;2023-12-07T09:42:26;38.65;;;17.45;;
27543;SDS011;17996;51.056;3.656;2023-12-07T09:44:52;32.70;;;18.52;;
27543;SDS011;17996;51.056;3.656;2023-12-07T09:47:19;36.97;;;16.88;;
27543;SDS011;17996;51.056;3.656;2023-12-07T09:49:45;37.05;;;16.38;;
27543;SDS011;17996;51.056;3.656;2023-12-07T09:52:11;34.45;;;16.45;;
27543;SDS011;17996;51.056;3.656;2023-12-07T09:54:41;31.33;;;16.60;;
27543;SDS011;17996;51.056;3.656;2023-12-07T09:57:08;34.92;;;17.05;;
27543;SDS011;17996;51.056;3.656;2023-12-07T09:59:38;40.60;;;18.33;;
27543;SDS011;17996;51.056;3.656;2023-12-07T10:02:06;41.40;;;17.83;;
27543;SDS011;17996;51.056;3.656;2023-12-07T10:04:33;31.35;;;15.60;;
27543;SDS011;17996;51.056;3.656;2023-12-07T10:06:58;35.78;;;16.08;;
27543;SDS011;17996;51.056;3.656;2023-12-07T10:09:25;33.63;;;16.98;;
27543;SDS011;17996;51.056;3.656;2023-12-07T10:12:01;39.22;;;16.90;;
27543;SDS011;17996;51.056;3.656;2023-12-07T10:14:28;32.58;;;17.95;;
27543;SDS011;17996;51.056;3.656;2023-12-07T10:16:54;34.00;;;17.02;;
27543;SDS011;17996;51.056;3.656;2023-12-07T10:19:20;37.05;;;17.70;;
27543;SDS011;17996;51.056;3.656;2023-12-07T10:21:47;34.60;;;16.85;;
27543;SDS011;17996;51.056;3.656;2023-12-07T10:24:15;39.47;;;17.70;;
27543;SDS011;17996;51.056;3.656;2023-12-07T10:26:45;43.10;;;17.27;;
27543;SDS011;17996;51.056;3.656;2023-12-07T10:29:12;35.22;;;16.80;;
27543;SDS011;17996;51.056;3.656;2023-12-07T10:31:38;48.33;;;18.13;;
27543;SDS011;17996;51.056;3.656;2023-12-07T10:34:05;31.80;;;17.20;;
27543;SDS011;17996;51.056;3.656;2023-12-07T10:36:31;33.45;;;17.27;;
27543;SDS011;17996;51.056;3.656;2023-12-07T10:39:00;33.60;;;16.63;;
27543;SDS011;17996;51.056;3.656;2023-12-07T10:41:26;42.60;;;17.48;;
27543;SDS011;17996;51.056;3.656;2023-12-07T10:43:53;37.08;;;17.60;;
27543;SDS011;17996;51.056;3.656;2023-12-07T10:46:22;30.80;;;16.75;;
27543;SDS011;17996;51.056;3.656;2023-12-07T10:48:48;30.55;;;16.48;;
27543;SDS011;17996;51.056;3.656;2023-12-07T10:54:07;49.55;;;19.42;;
27543;SDS011;17996;51.056;3.656;2023-12-07T10:56:42;42.88;;;16.23;;
27543;SDS011;17996;51.056;3.656;2023-12-07T10:59:10;31.05;;;16.00;;
27543;SDS011;17996;51.056;3.656;2023-12-07T11:01:41;29.42;;;16.45;;
27543;SDS011;17996;51.056;3.656;2023-12-07T11:04:11;35.25;;;15.35;;
27543;SDS011;17996;51.056;3.656;2023-12-07T11:06:38;27.70;;;15.80;;
27543;SDS011;17996;51.056;3.656;2023-12-07T11:09:06;27.70;;;15.57;;
27543;SDS011;17996;51.056;3.656;2023-12-07T11:11:44;26.00;;;15.38;;
27543;SDS011;17996;51.056;3.656;2023-12-07T11:14:20;32.70;;;15.43;;
27543;SDS011;17996;51.056;3.656;2023-12-07T11:16:46;29.83;;;14.82;;
27543;SDS011;17996;51.056;3.656;2023-12-07T11:22:09;26.98;;;14.23;;
27543;SDS011;17996;51.056;3.656;2023-12-07T11:24:37;30.60;;;15.98;;
27543;SDS011;17996;51.056;3.656;2023-12-07T11:27:03;35.42;;;17.65;;
27543;SDS011;17996;51.056;3.656;2023-12-07T11:29:29;32.85;;;14.38;;
27543;SDS011;17996;51.056;3.656;2023-12-07T11:31:56;22.13;;;14.63;;
27543;SDS011;17996;51.056;3.656;2023-12-07T11:37:05;27.73;;;15.18;;
27543;SDS011;17996;51.056;3.656;2023-12-07T11:39:35;28.88;;;16.83;;
27543;SDS011;17996;51.056;3.656;2023-12-07T11:44:39;20.77;;;13.15;;
27543;SDS011;17996;51.056;3.656;2023-12-07T11:47:06;25.33;;;13.45;;
27543;SDS011;17996;51.056;3.656;2023-12-07T11:49:35;26.95;;;12.80;;
27543;SDS011;17996;51.056;3.656;2023-12-07T11:52:11;23.90;;;11.98;;
27543;SDS011;17996;51.056;3.656;2023-12-07T11:54:47;24.20;;;13.20;;
27543;SDS011;17996;51.056;3.656;2023-12-07T11:57:14;29.30;;;12.48;;
27543;SDS011;17996;51.056;3.656;2023-12-07T11:59:44;22.48;;;12.45;;
27543;SDS011;17996;51.056;3.656;2023-12-07T12:02:13;23.40;;;13.35;;
27543;SDS011;17996;51.056;3.656;2023-12-07T12:04:41;26.40;;;12.27;;
27543;SDS011;17996;51.056;3.656;2023-12-07T12:07:07;17.02;;;9.50;;
27543;SDS011;17996;51.056;3.656;2023-12-07T12:09:33;24.98;;;11.88;;
27543;SDS011;17996;51.056;3.656;2023-12-07T12:11:59;26.80;;;11.77;;
27543;SDS011;17996;51.056;3.656;2023-12-07T12:14:25;22.05;;;13.40;;
27543;SDS011;17996;51.056;3.656;2023-12-07T12:16:52;24.48;;;12.20;;
27543;SDS011;17996;51.056;3.656;2023-12-07T12:19:18;24.70;;;12.48;;
27543;SDS011;17996;51.056;3.656;2023-12-07T12:21:44;19.50;;;10.90;;
27543;SDS011;17996;51.056;3.656;2023-12-07T12:24:11;19.40;;;11.00;;
27543;SDS011;17996;51.056;3.656;2023-12-07T12:26:39;18.83;;;11.50;;
27543;SDS011;17996;51.056;3.656;2023-12-07T12:31:33;18.83;;;9.98;;
27543;SDS011;17996;51.056;3.656;2023-12-07T12:34:05;20.23;;;11.07;;
27543;SDS011;17996;51.056;3.656;2023-12-07T12:36:32;20.30;;;11.30;;
27543;SDS011;17996;51.056;3.656;2023-12-07T12:38:58;22.40;;;11.25;;
27543;SDS011;17996;51.056;3.656;2023-12-07T12:41:25;19.45;;;11.10;;
27543;SDS011;17996;51.056;3.656;2023-12-07T12:43:51;22.13;;;11.13;;
27543;SDS011;17996;51.056;3.656;2023-12-07T12:46:18;21.15;;;11.38;;
27543;SDS011;17996;51.056;3.656;2023-12-07T12:48:56;20.80;;;11.23;;
27543;SDS011;17996;51.056;3.656;2023-12-07T12:51:26;23.38;;;10.43;;
27543;SDS011;17996;51.056;3.656;2023-12-07T12:53:53;16.77;;;9.63;;
27543;SDS011;17996;51.056;3.656;2023-12-07T12:56:20;22.95;;;10.00;;
27543;SDS011;17996;51.056;3.656;2023-12-07T12:58:50;13.60;;;8.32;;
27543;SDS011;17996;51.056;3.656;2023-12-07T13:01:16;16.67;;;10.00;;
27543;SDS011;17996;51.056;3.656;2023-12-07T13:03:43;17.83;;;9.13;;
27543;SDS011;17996;51.056;3.656;2023-12-07T13:06:11;20.15;;;8.82;;
27543;SDS011;17996;51.056;3.656;2023-12-07T13:08:44;17.48;;;9.82;;
27543;SDS011;17996;51.056;3.656;2023-12-07T13:11:19;17.20;;;8.95;;
27543;SDS011;17996;51.056;3.656;2023-12-07T13:13:46;20.52;;;9.15;;
27543;SDS011;17996;51.056;3.656;2023-12-07T13:16:18;12.63;;;8.50;;
27543;SDS011;17996;51.056;3.656;2023-12-07T13:18:45;18.60;;;8.32;;
27543;SDS011;17996;51.056;3.656;2023-12-07T13:21:11;13.90;;;8.13;;
27543;SDS011;17996;51.056;3.656;2023-12-07T13:23:37;15.45;;;8.07;;
27543;SDS011;17996;51.056;3.656;2023-12-07T13:26:02;13.35;;;8.38;;
27543;SDS011;17996;51.056;3.656;2023-12-07T13:28:29;16.95;;;8.65;;
27543;SDS011;17996;51.056;3.656;2023-12-07T13:30:55;14.88;;;8.07;;
27543;SDS011;17996;51.056;3.656;2023-12-07T13:33:21;13.52;;;7.63;;
27543;SDS011;17996;51.056;3.656;2023-12-07T13:35:48;13.15;;;8.52;;
27543;SDS011;17996;51.056;3.656;2023-12-07T13:38:14;18.77;;;8.82;;
27543;SDS011;17996;51.056;3.656;2023-12-07T13:40:40;13.88;;;8.60;;
27543;SDS011;17996;51.056;3.656;2023-12-07T13:43:06;19.23;;;8.38;;
27543;SDS011;17996;51.056;3.656;2023-12-07T13:45:32;14.98;;;8.20;;
27543;SDS011;17996;51.056;3.656;2023-12-07T13:47:57;20.55;;;8.25;;
27543;SDS011;17996;51.056;3.656;2023-12-07T13:50:24;14.55;;;6.88;;
27543;SDS011;17996;51.056;3.656;2023-12-07T13:52:50;12.07;;;7.57;;
27543;SDS011;17996;51.056;3.656;2023-12-07T13:55:17;13.35;;;7.25;;
27543;SDS011;17996;51.056;3.656;2023-12-07T13:57:42;15.23;;;8.60;;
27543;SDS011;17996;51.056;3.656;2023-12-07T14:00:08;18.73;;;8.45;;
27543;SDS011;17996;51.056;3.656;2023-12-07T14:02:38;11.65;;;8.13;;
27543;SDS011;17996;51.056;3.656;2023-12-07T14:05:04;13.40;;;8.32;;
27543;SDS011;17996;51.056;3.656;2023-12-07T14:07:30;14.82;;;8.75;;
27543;SDS011;17996;51.056;3.656;2023-12-07T14:09:56;13.25;;;8.32;;
27543;SDS011;17996;51.056;3.656;2023-12-07T14:12:21;15.13;;;8.02;;
27543;SDS011;17996;51.056;3.656;2023-12-07T14:14:48;16.77;;;7.53;;
27543;SDS011;17996;51.056;3.656;2023-12-07T14:17:14;14.30;;;8.25;;
27543;SDS011;17996;51.056;3.656;2023-12-07T14:19:41;12.00;;;7.90;;
27543;SDS011;17996;51.056;3.656;2023-12-07T14:22:08;15.20;;;7.47;;
27543;SDS011;17996;51.056;3.656;2023-12-07T14:24:37;19.45;;;8.95;;
27543;SDS011;17996;51.056;3.656;2023-12-07T14:27:03;14.30;;;7.25;;
27543;SDS011;17996;51.056;3.656;2023-12-07T14:29:31;18.25;;;7.78;;
27543;SDS011;17996;51.056;3.656;2023-12-07T14:31:58;17.67;;;7.57;;
27543;SDS011;17996;51.056;3.656;2023-12-07T14:34:24;11.70;;;7.15;;
27543;SDS011;17996;51.056;3.656;2023-12-07T14:36:52;12.00;;;7.47;;